Time,TemperatureF,DewpointF,PressureIn,WindDirection,WindDirectionDegrees,WindSpeedMPH,WindSpeedGustMPH,Humidity,HourlyPrecipIn,Conditions,Clouds,dailyrainin,SoftwareType,DateUTC
2013-02-02 00:00:00,46.4,31.1,30.24,ESE,112,7.6,7.6,55,0.00,,,0.00,VWS V13.01,2013-02-02 08:00:00,
2013-02-02 00:06:00,46.2,31.0,30.24,ESE,120,5.8,6.3,55,0.00,,,0.00,VWS V13.01,2013-02-02 08:06:00,
2013-02-02 00:11:00,46.2,31.4,30.24,SE,139,8.7,8.7,56,0.00,,,0.00,VWS V13.01,2013-02-02 08:11:00,
2013-02-02 00:16:00,46.2,31.0,30.24,ESE,123,5.8,6.3,55,0.00,,,0.00,VWS V13.01,2013-02-02 08:16:00,
2013-02-02 00:21:00,46.2,31.4,30.24,SE,141,8.1,8.1,56,0.00,,,0.00,VWS V13.01,2013-02-02 08:21:00,
2013-02-02 00:26:00,46.2,31.4,30.24,ESE,122,8.7,11.9,56,0.00,,,0.00,VWS V13.01,2013-02-02 08:26:00,
2013-02-02 00:31:00,46.2,31.0,30.24,SE,132,8.1,8.3,55,0.00,,,0.00,VWS V13.01,2013-02-02 08:31:00,
2013-02-02 00:36:00,46.2,31.4,30.24,SSE,156,6.3,8.7,56,0.00,,,0.00,VWS V13.01,2013-02-02 08:36:00,
2013-02-02 00:41:00,46.2,31.0,30.24,SE,140,5.4,8.3,55,0.00,,,0.00,VWS V13.01,2013-02-02 08:41:00,
2013-02-02 00:45:00,46.2,31.0,30.24,SSE,151,6.3,8.3,55,0.00,,,0.00,VWS V13.01,2013-02-02 08:45:00,
2013-02-02 00:50:00,46.2,31.0,30.24,SE,140,10.5,11.0,55,0.00,,,0.00,VWS V13.01,2013-02-02 08:50:00,
2013-02-02 00:55:00,46.2,31.0,30.24,ESE,109,5.4,6.3,55,0.00,,,0.00,VWS V13.01,2013-02-02 08:55:00,
2013-02-02 01:00:00,46.2,31.0,30.24,SE,125,5.8,6.3,55,0.00,,,0.00,VWS V13.01,2013-02-02 09:00:00,
2013-02-02 01:05:00,46.0,30.8,30.24,SE,136,5.8,5.8,55,0.00,,,0.00,VWS V13.01,2013-02-02 09:05:00,
2013-02-02 01:10:00,46.0,31.2,30.24,ESE,121,4.9,6.3,56,0.00,,,0.00,VWS V13.01,2013-02-02 09:10:00,
2013-02-02 01:15:00,46.0,31.2,30.24,SE,145,5.4,5.4,56,0.00,,,0.00,VWS V13.01,2013-02-02 09:15:00,
2013-02-02 01:20:00,45.9,31.1,30.24,SSE,167,3.1,3.1,56,0.00,,,0.00,VWS V13.01,2013-02-02 09:20:00,
2013-02-02 01:25:00,45.9,31.1,30.24,South,173,2.2,3.1,56,0.00,,,0.00,VWS V13.01,2013-02-02 09:25:00,
2013-02-02 01:30:00,45.5,31.2,30.24,SE,141,0.0,0.0,57,0.00,,,0.00,VWS V13.01,2013-02-02 09:30:00,
2013-02-02 01:35:00,45.5,31.6,30.24,SSE,147,2.2,4.0,58,0.00,,,0.00,VWS V13.01,2013-02-02 09:35:00,
2013-02-02 01:40:00,45.5,31.6,30.24,SE,144,3.6,4.9,58,0.00,,,0.00,VWS V13.01,2013-02-02 09:40:00,
2013-02-02 01:45:00,45.1,31.3,30.24,SE,137,3.1,3.6,58,0.00,,,0.00,VWS V13.01,2013-02-02 09:45:00,
2013-02-02 01:50:00,45.3,32.3,30.24,SSE,158,4.0,4.9,60,0.00,,,0.00,VWS V13.01,2013-02-02 09:50:00,
2013-02-02 01:55:00,45.0,31.9,30.24,SSE,149,4.0,4.0,60,0.00,,,0.00,VWS V13.01,2013-02-02 09:55:00,
2013-02-02 02:00:00,45.0,32.3,30.24,SE,139,3.1,3.1,61,0.00,,,0.00,VWS V13.01,2013-02-02 10:00:00,
2013-02-02 02:05:00,44.6,32.0,30.24,SSE,149,4.9,4.9,61,0.00,,,0.00,VWS V13.01,2013-02-02 10:05:00,
2013-02-02 02:10:00,44.6,32.8,30.24,SSE,160,2.7,4.9,63,0.00,,,0.00,VWS V13.01,2013-02-02 10:10:00,
2013-02-02 02:15:00,44.4,33.0,30.24,SE,146,4.0,4.0,64,0.00,,,0.00,VWS V13.01,2013-02-02 10:15:00,
2013-02-02 02:20:00,44.6,34.3,30.24,SSE,158,4.5,8.1,67,0.00,,,0.00,VWS V13.01,2013-02-02 10:20:00,
2013-02-02 02:25:00,44.8,34.1,30.24,SE,129,5.8,7.6,66,0.00,,,0.00,VWS V13.01,2013-02-02 10:25:00,
2013-02-02 02:30:00,44.8,33.8,30.24,SE,130,3.1,5.4,65,0.00,,,0.00,VWS V13.01,2013-02-02 10:30:00,
2013-02-02 02:35:00,44.8,33.4,30.24,ESE,121,6.3,6.3,64,0.00,,,0.00,VWS V13.01,2013-02-02 10:35:00,
2013-02-02 02:40:00,45.0,33.1,30.24,SE,133,5.4,6.3,63,0.00,,,0.00,VWS V13.01,2013-02-02 10:40:00,
2013-02-02 02:45:00,44.8,32.2,30.24,ESE,115,8.1,10.5,61,0.00,,,0.00,VWS V13.01,2013-02-02 10:45:00,
2013-02-02 02:50:00,44.8,32.6,30.24,SSE,155,8.7,8.7,62,0.00,,,0.00,VWS V13.01,2013-02-02 10:50:00,
2013-02-02 02:55:00,44.8,32.6,30.24,SE,143,7.6,10.5,62,0.00,,,0.00,VWS V13.01,2013-02-02 10:55:00,
2013-02-02 03:00:00,45.0,32.7,30.24,SE,140,10.5,10.5,62,0.00,,,0.00,VWS V13.01,2013-02-02 11:00:00,
2013-02-02 03:05:00,45.1,32.5,30.24,SE,141,11.0,12.3,61,0.00,,,0.00,VWS V13.01,2013-02-02 11:05:00,
2013-02-02 03:10:00,45.3,31.9,30.24,SE,144,8.7,8.7,59,0.00,,,0.00,VWS V13.01,2013-02-02 11:10:00,
2013-02-02 03:15:00,45.3,31.0,30.24,SSE,149,10.1,10.1,57,0.00,,,0.00,VWS V13.01,2013-02-02 11:15:00,
2013-02-02 03:20:00,45.1,30.8,30.24,ESE,122,7.6,7.6,57,0.00,,,0.00,VWS V13.01,2013-02-02 11:20:00,
2013-02-02 03:25:00,45.1,30.8,30.24,ESE,115,8.1,8.1,57,0.00,,,0.00,VWS V13.01,2013-02-02 11:25:00,
2013-02-02 03:30:00,45.1,30.4,30.24,SSE,151,5.4,5.4,56,0.00,,,0.00,VWS V13.01,2013-02-02 11:30:00,
2013-02-02 03:35:00,45.1,30.8,30.24,SE,138,8.3,8.3,57,0.00,,,0.00,VWS V13.01,2013-02-02 11:35:00,
2013-02-02 03:40:00,45.0,30.7,30.24,ESE,103,6.3,10.1,57,0.00,,,0.00,VWS V13.01,2013-02-02 11:40:00,
2013-02-02 03:45:00,45.1,30.4,30.24,ESE,114,6.3,8.3,56,0.00,,,0.00,VWS V13.01,2013-02-02 11:45:00,
2013-02-02 03:50:00,45.1,30.0,30.24,SE,126,12.8,12.8,55,0.00,,,0.00,VWS V13.01,2013-02-02 11:50:00,
2013-02-02 03:55:00,45.1,29.5,30.24,SE,127,8.1,8.1,54,0.00,,,0.00,VWS V13.01,2013-02-02 11:55:00,
2013-02-02 04:00:00,45.1,30.0,30.24,SE,125,5.8,11.0,55,0.00,,,0.00,VWS V13.01,2013-02-02 12:00:00,
2013-02-02 04:05:00,45.0,29.8,30.24,ESE,115,7.6,8.3,55,0.00,,,0.00,VWS V13.01,2013-02-02 12:05:00,
2013-02-02 04:10:00,45.1,30.0,30.24,SE,138,8.1,10.5,55,0.00,,,0.00,VWS V13.01,2013-02-02 12:10:00,
2013-02-02 04:15:00,45.0,29.8,30.24,SE,144,7.6,8.3,55,0.00,,,0.00,VWS V13.01,2013-02-02 12:15:00,
2013-02-02 04:20:00,45.0,29.8,30.24,SE,139,11.0,11.9,55,0.00,,,0.00,VWS V13.01,2013-02-02 12:20:00,
2013-02-02 04:25:00,45.0,29.3,30.24,SE,133,8.1,10.5,54,0.00,,,0.00,VWS V13.01,2013-02-02 12:25:00,
2013-02-02 04:30:00,44.8,29.2,30.24,SE,128,12.8,13.2,54,0.00,,,0.00,VWS V13.01,2013-02-02 12:30:00,
2013-02-02 04:35:00,44.8,29.2,30.24,SE,133,15.0,15.0,54,0.00,,,0.00,VWS V13.01,2013-02-02 12:35:00,
2013-02-02 04:40:00,44.8,29.2,30.24,SE,135,5.8,7.6,54,0.00,,,0.00,VWS V13.01,2013-02-02 12:40:00,
2013-02-02 04:45:00,44.6,29.5,30.24,SE,139,5.4,8.3,55,0.00,,,0.00,VWS V13.01,2013-02-02 12:45:00,
2013-02-02 04:50:00,44.6,29.5,30.24,SSE,158,5.4,10.1,55,0.00,,,0.00,VWS V13.01,2013-02-02 12:50:00,
2013-02-02 04:55:00,44.6,29.5,30.24,SSE,155,6.3,11.9,55,0.00,,,0.00,VWS V13.01,2013-02-02 12:55:00,
2013-02-02 05:00:00,44.4,29.7,30.24,ESE,102,8.1,8.1,56,0.00,,,0.00,VWS V13.01,2013-02-02 13:00:00,
2013-02-02 05:05:00,44.4,29.7,30.24,SE,133,7.6,8.1,56,0.00,,,0.00,VWS V13.01,2013-02-02 13:05:00,
2013-02-02 05:10:00,44.4,29.7,30.24,SE,132,11.4,14.1,56,0.00,,,0.00,VWS V13.01,2013-02-02 13:10:00,
2013-02-02 05:15:00,44.6,29.5,30.24,SE,141,8.3,11.0,55,0.00,,,0.00,VWS V13.01,2013-02-02 13:15:00,
2013-02-02 05:20:00,44.4,29.3,30.24,SE,142,10.5,13.2,55,0.00,,,0.00,VWS V13.01,2013-02-02 13:20:00,
2013-02-02 05:25:00,44.2,29.1,30.24,ESE,120,10.1,10.1,55,0.00,,,0.00,VWS V13.01,2013-02-02 13:25:00,
2013-02-02 05:30:00,44.2,29.1,30.24,East,87,10.5,12.8,55,0.00,,,0.00,VWS V13.01,2013-02-02 13:30:00,
2013-02-02 05:35:00,44.2,29.1,30.24,ESE,121,13.2,13.2,55,0.00,,,0.00,VWS V13.01,2013-02-02 13:35:00,
2013-02-02 05:40:00,44.2,29.1,30.24,SSE,165,8.1,10.5,55,0.00,,,0.00,VWS V13.01,2013-02-02 13:40:00,
2013-02-02 05:45:00,44.1,28.9,30.24,SE,129,10.1,10.1,55,0.00,,,0.00,VWS V13.01,2013-02-02 13:45:00,
2013-02-02 05:50:00,44.1,28.9,30.24,SSE,147,5.8,8.1,55,0.00,,,0.00,VWS V13.01,2013-02-02 13:50:00,
2013-02-02 05:55:00,43.9,29.2,30.24,ESE,117,6.3,6.3,56,0.00,,,0.00,VWS V13.01,2013-02-02 13:55:00,
2013-02-02 06:00:00,43.9,29.2,30.24,South,171,5.4,6.3,56,0.00,,,0.00,VWS V13.01,2013-02-02 14:00:00,
2013-02-02 06:05:00,43.7,29.0,30.24,SE,139,8.3,11.0,56,0.00,,,0.00,VWS V13.01,2013-02-02 14:05:00,
2013-02-02 06:10:00,43.7,29.5,30.24,SSE,150,6.3,6.3,57,0.00,,,0.00,VWS V13.01,2013-02-02 14:10:00,
2013-02-02 06:15:00,43.7,29.5,30.24,SE,136,5.8,5.8,57,0.00,,,0.00,VWS V13.01,2013-02-02 14:15:00,
2013-02-02 06:20:00,43.7,29.0,30.24,SE,133,10.5,13.2,56,0.00,,,0.00,VWS V13.01,2013-02-02 14:20:00,
2013-02-02 06:25:00,43.7,29.5,30.24,SE,140,13.2,13.2,57,0.00,,,0.00,VWS V13.01,2013-02-02 14:25:00,
2013-02-02 06:30:00,43.5,29.3,30.24,SE,136,10.1,10.5,57,0.00,,,0.00,VWS V13.01,2013-02-02 14:30:00,
2013-02-02 06:35:00,43.5,29.7,30.24,SE,133,11.0,12.8,58,0.00,,,0.00,VWS V13.01,2013-02-02 14:35:00,
2013-02-02 06:40:00,43.5,29.3,30.24,SE,128,11.0,11.0,57,0.00,,,0.00,VWS V13.01,2013-02-02 14:40:00,
2013-02-02 06:45:00,43.3,29.6,30.24,SSE,147,6.3,11.9,58,0.00,,,0.00,VWS V13.01,2013-02-02 14:45:00,
2013-02-02 06:50:00,43.3,29.6,30.24,SE,142,8.7,8.7,58,0.00,,,0.00,VWS V13.01,2013-02-02 14:50:00,
2013-02-02 06:55:00,43.3,29.6,30.24,SSE,153,10.5,10.5,58,0.00,,,0.00,VWS V13.01,2013-02-02 14:55:00,
2013-02-02 07:00:00,43.3,29.6,30.24,SE,124,9.6,9.6,58,0.00,,,0.00,VWS V13.01,2013-02-02 15:00:00,
2013-02-02 07:05:00,43.3,29.6,30.24,ESE,117,8.3,8.3,58,0.00,,,0.00,VWS V13.01,2013-02-02 15:05:00,
2013-02-02 07:10:00,43.2,29.4,30.24,SE,136,10.1,10.1,58,0.00,,,0.00,VWS V13.01,2013-02-02 15:10:00,
2013-02-02 07:15:00,43.0,29.2,30.24,SE,132,10.5,10.5,58,0.00,,,0.00,VWS V13.01,2013-02-02 15:15:00,
2013-02-02 07:20:00,43.0,29.2,30.24,ESE,122,8.7,12.8,58,0.00,,,0.00,VWS V13.01,2013-02-02 15:20:00,
2013-02-02 07:25:00,43.0,28.8,30.24,SE,127,8.1,8.1,57,0.00,,,0.00,VWS V13.01,2013-02-02 15:25:00,
2013-02-02 07:30:00,43.0,28.4,30.24,SE,126,8.3,8.3,56,0.00,,,0.00,VWS V13.01,2013-02-02 15:30:00,
2013-02-02 07:35:00,43.0,28.4,30.24,SSE,151,7.6,10.1,56,0.00,,,0.00,VWS V13.01,2013-02-02 15:35:00,
2013-02-02 07:40:00,43.0,28.4,30.24,SE,143,8.3,10.5,56,0.00,,,0.00,VWS V13.01,2013-02-02 15:40:00,
2013-02-02 07:45:00,42.8,28.2,30.24,SE,144,6.3,15.0,56,0.00,,,0.00,VWS V13.01,2013-02-02 15:45:00,
2013-02-02 07:50:00,43.0,28.4,30.27,South,175,8.3,8.3,56,0.00,,,0.00,VWS V13.01,2013-02-02 15:50:00,
2013-02-02 07:55:00,43.0,27.9,30.27,SE,140,11.0,13.2,55,0.00,,,0.00,VWS V13.01,2013-02-02 15:55:00,
2013-02-02 08:00:00,43.0,27.9,30.27,ESE,122,10.1,10.1,55,0.00,,,0.00,VWS V13.01,2013-02-02 16:00:00,
2013-02-02 08:05:00,43.0,27.5,30.27,ESE,119,6.3,10.1,54,0.00,,,0.00,VWS V13.01,2013-02-02 16:05:00,
2013-02-02 08:10:00,43.0,27.5,30.27,SE,125,5.8,5.8,54,0.00,,,0.00,VWS V13.01,2013-02-02 16:10:00,
2013-02-02 08:15:00,43.0,27.5,30.27,SE,146,7.6,7.6,54,0.00,,,0.00,VWS V13.01,2013-02-02 16:15:00,
2013-02-02 08:20:00,43.2,27.7,30.27,SSE,153,4.0,4.0,54,0.00,,,0.00,VWS V13.01,2013-02-02 16:20:00,
2013-02-02 08:25:00,43.3,27.8,30.27,South,177,5.4,5.4,54,0.00,,,0.00,VWS V13.01,2013-02-02 16:25:00,
2013-02-02 08:30:00,43.3,27.4,30.27,South,186,4.9,4.9,53,0.00,,,0.00,VWS V13.01,2013-02-02 16:30:00,
2013-02-02 08:35:00,43.5,27.1,30.27,SE,143,5.4,5.4,52,0.00,,,0.00,VWS V13.01,2013-02-02 16:35:00,
2013-02-02 08:40:00,43.9,26.9,30.27,SE,144,8.1,8.1,51,0.00,,,0.00,VWS V13.01,2013-02-02 16:40:00,
2013-02-02 08:45:00,44.1,26.6,30.27,SSE,162,4.0,8.1,50,0.00,,,0.00,VWS V13.01,2013-02-02 16:45:00,
2013-02-02 08:50:00,44.2,26.8,30.27,SE,146,8.3,8.3,50,0.00,,,0.00,VWS V13.01,2013-02-02 16:50:00,
2013-02-02 08:55:00,44.2,26.8,30.27,South,171,4.9,5.8,50,0.00,,,0.00,VWS V13.01,2013-02-02 16:55:00,
2013-02-02 09:00:00,44.6,27.1,30.27,SSE,165,3.1,3.1,50,0.00,,,0.00,VWS V13.01,2013-02-02 17:00:00,
2013-02-02 09:05:00,44.8,27.3,30.27,SE,146,5.4,5.4,50,0.00,,,0.00,VWS V13.01,2013-02-02 17:05:00,
2013-02-02 09:10:00,45.1,27.1,30.27,SSE,147,5.4,5.4,49,0.00,,,0.00,VWS V13.01,2013-02-02 17:10:00,
2013-02-02 09:15:00,45.3,26.8,30.27,SE,143,5.8,5.8,48,0.00,,,0.00,VWS V13.01,2013-02-02 17:15:00,
2013-02-02 09:20:00,45.5,27.0,30.27,SSE,161,8.3,8.3,48,0.00,,,0.00,VWS V13.01,2013-02-02 17:20:00,
2013-02-02 09:25:00,46.0,27.5,30.27,SSE,151,5.4,5.8,48,0.00,,,0.00,VWS V13.01,2013-02-02 17:25:00,
2013-02-02 09:30:00,46.2,27.1,30.27,SE,145,4.0,4.0,47,0.00,,,0.00,VWS V13.01,2013-02-02 17:30:00,
2013-02-02 09:35:00,46.4,26.2,30.27,SSE,150,6.3,6.3,45,0.00,,,0.00,VWS V13.01,2013-02-02 17:35:00,
2013-02-02 09:40:00,46.6,25.9,30.27,East,97,5.8,5.8,44,0.00,,,0.00,VWS V13.01,2013-02-02 17:40:00,
2013-02-02 09:45:00,46.8,26.0,30.27,SE,146,6.3,6.3,44,0.00,,,0.00,VWS V13.01,2013-02-02 17:45:00,
2013-02-02 09:50:00,46.9,25.6,30.30,ESE,117,5.8,7.6,43,0.00,,,0.00,VWS V13.01,2013-02-02 17:50:00,
2013-02-02 09:55:00,46.9,25.6,30.30,SSE,151,10.1,11.9,43,0.00,,,0.00,VWS V13.01,2013-02-02 17:55:00,
2013-02-02 10:00:00,46.9,26.2,30.30,ESE,121,5.4,8.3,44,0.00,,,0.00,VWS V13.01,2013-02-02 18:00:00,
2013-02-02 10:05:00,47.1,26.3,30.30,SSE,155,6.3,6.3,44,0.00,,,0.00,VWS V13.01,2013-02-02 18:05:00,
2013-02-02 10:10:00,47.5,26.7,30.30,SE,136,5.4,5.4,44,0.00,,,0.00,VWS V13.01,2013-02-02 18:10:00,
2013-02-02 10:15:00,47.8,25.9,30.30,ESE,116,5.4,6.7,42,0.00,,,0.00,VWS V13.01,2013-02-02 18:15:00,
2013-02-02 10:20:00,48.2,25.6,30.30,SE,134,7.6,7.6,41,0.00,,,0.00,VWS V13.01,2013-02-02 18:20:00,
2013-02-02 10:25:00,48.7,26.1,30.30,SSE,156,2.7,2.7,41,0.00,,,0.00,VWS V13.01,2013-02-02 18:25:00,
2013-02-02 10:30:00,48.9,25.7,30.30,SE,142,3.6,8.1,40,0.00,,,0.00,VWS V13.01,2013-02-02 18:30:00,
2013-02-02 10:35:00,49.5,26.8,30.30,SE,140,0.0,0.0,41,0.00,,,0.00,VWS V13.01,2013-02-02 18:35:00,
2013-02-02 10:40:00,50.2,26.8,30.30,SE,129,4.9,4.9,40,0.00,,,0.00,VWS V13.01,2013-02-02 18:40:00,
2013-02-02 10:45:00,50.7,26.7,30.30,ESE,119,2.7,2.7,39,0.00,,,0.00,VWS V13.01,2013-02-02 18:45:00,
2013-02-02 10:50:00,51.1,26.4,30.30,ESE,117,4.0,5.4,38,0.00,,,0.00,VWS V13.01,2013-02-02 18:50:00,
2013-02-02 10:55:00,51.4,26.7,30.30,SE,139,5.8,5.8,38,0.00,,,0.00,VWS V13.01,2013-02-02 18:55:00,
2013-02-02 11:00:00,51.4,26.7,30.30,SE,137,3.1,6.3,38,0.00,,,0.00,VWS V13.01,2013-02-02 19:00:00,
2013-02-02 11:05:00,51.6,26.9,30.30,ESE,120,5.4,5.8,38,0.00,,,0.00,VWS V13.01,2013-02-02 19:05:00,
2013-02-02 11:10:00,52.0,27.2,30.30,SE,145,3.6,4.0,38,0.00,,,0.00,VWS V13.01,2013-02-02 19:10:00,
2013-02-02 11:15:00,52.3,26.9,30.30,SE,136,0.0,4.9,37,0.00,,,0.00,VWS V13.01,2013-02-02 19:15:00,
2013-02-02 11:20:00,52.9,27.3,30.30,SE,141,3.1,5.4,37,0.00,,,0.00,VWS V13.01,2013-02-02 19:20:00,
2013-02-02 11:25:00,52.9,27.3,30.30,East,101,3.6,4.9,37,0.00,,,0.00,VWS V13.01,2013-02-02 19:25:00,
2013-02-02 11:30:00,53.4,27.8,30.30,SE,133,3.1,3.1,37,0.00,,,0.00,VWS V13.01,2013-02-02 19:30:00,
2013-02-02 11:35:00,54.0,28.3,30.30,ESE,115,0.0,2.7,37,0.00,,,0.00,VWS V13.01,2013-02-02 19:35:00,
2013-02-02 11:40:00,54.3,28.6,30.30,South,179,4.9,4.9,37,0.00,,,0.00,VWS V13.01,2013-02-02 19:40:00,
2013-02-02 11:45:00,54.7,28.9,30.30,SSW,195,4.0,4.5,37,0.00,,,0.00,VWS V13.01,2013-02-02 19:45:00,
2013-02-02 11:50:00,55.0,28.6,30.30,SSW,197,0.0,3.1,36,0.00,,,0.00,VWS V13.01,2013-02-02 19:50:00,
2013-02-02 11:55:00,55.4,28.9,30.30,SSE,150,0.0,0.0,36,0.00,,,0.00,VWS V13.01,2013-02-02 19:55:00,
2013-02-02 12:00:00,56.1,29.5,30.30,SSE,159,2.7,2.7,36,0.00,,,0.00,VWS V13.01,2013-02-02 20:00:00,
2013-02-02 12:05:00,56.7,30.0,30.30,South,184,2.2,3.1,36,0.00,,,0.00,VWS V13.01,2013-02-02 20:05:00,
2013-02-02 12:10:00,57.0,30.4,30.30,South,169,0.0,3.1,36,0.00,,,0.00,VWS V13.01,2013-02-02 20:10:00,
2013-02-02 12:15:00,57.2,29.8,30.30,SE,145,0.0,2.2,35,0.00,,,0.00,VWS V13.01,2013-02-02 20:15:00,
2013-02-02 12:20:00,57.6,30.1,30.30,South,189,3.1,3.1,35,0.00,,,0.00,VWS V13.01,2013-02-02 20:20:00,
2013-02-02 12:25:00,57.4,30.0,30.30,South,182,0.0,0.0,35,0.00,,,0.00,VWS V13.01,2013-02-02 20:25:00,
2013-02-02 12:30:00,57.0,30.4,30.30,SE,145,2.7,3.6,36,0.00,,,0.00,VWS V13.01,2013-02-02 20:30:00,
2013-02-02 12:35:00,57.6,30.1,30.30,SSW,195,0.0,2.7,35,0.00,,,0.00,VWS V13.01,2013-02-02 20:35:00,
2013-02-02 12:40:00,57.4,30.0,30.30,South,191,0.0,0.0,35,0.00,,,0.00,VWS V13.01,2013-02-02 20:40:00,
2013-02-02 12:45:00,57.6,30.1,30.30,SSW,199,3.6,3.6,35,0.00,,,0.00,VWS V13.01,2013-02-02 20:45:00,
2013-02-02 12:50:00,57.9,30.5,30.30,SSW,205,0.0,3.1,35,0.00,,,0.00,VWS V13.01,2013-02-02 20:50:00,
2013-02-02 12:55:00,58.1,30.6,30.30,SSW,203,0.0,0.0,35,0.00,,,0.00,VWS V13.01,2013-02-02 20:55:00,
2013-02-02 13:00:00,58.5,30.9,30.30,SSW,203,0.0,0.0,35,0.00,,,0.00,VWS V13.01,2013-02-02 21:00:00,
2013-02-02 13:05:00,58.8,31.2,30.30,SSW,203,0.0,0.0,35,0.00,,,0.00,VWS V13.01,2013-02-02 21:05:00,
2013-02-02 13:10:00,59.0,31.4,30.27,SSW,203,0.0,0.0,35,0.00,,,0.00,VWS V13.01,2013-02-02 21:10:00,
2013-02-02 13:15:00,59.2,31.6,30.27,SW,220,3.1,3.1,35,0.00,,,0.00,VWS V13.01,2013-02-02 21:15:00,
2013-02-02 13:20:00,59.2,31.6,30.27,SSW,203,0.0,0.0,35,0.00,,,0.00,VWS V13.01,2013-02-02 21:20:00,
2013-02-02 13:25:00,59.5,31.9,30.27,SSW,203,0.0,0.0,35,0.00,,,0.00,VWS V13.01,2013-02-02 21:25:00,
2013-02-02 13:30:00,60.1,32.4,30.27,SW,223,0.0,0.0,35,0.00,,,0.00,VWS V13.01,2013-02-02 21:30:00,
2013-02-02 13:35:00,60.4,32.7,30.27,WSW,246,0.0,0.0,35,0.00,,,0.00,VWS V13.01,2013-02-02 21:35:00,
2013-02-02 13:40:00,60.6,32.8,30.27,SW,225,0.0,0.0,35,0.00,,,0.00,VWS V13.01,2013-02-02 21:40:00,
2013-02-02 13:45:00,60.6,32.8,30.27,NW,322,3.1,3.1,35,0.00,,,0.00,VWS V13.01,2013-02-02 21:45:00,
2013-02-02 13:50:00,60.4,32.7,30.27,WNW,287,6.3,6.3,35,0.00,,,0.00,VWS V13.01,2013-02-02 21:50:00,
2013-02-02 13:55:00,59.5,31.9,30.27,North,1,4.0,4.0,35,0.00,,,0.00,VWS V13.01,2013-02-02 21:55:00,
2013-02-02 14:00:00,59.2,31.6,30.27,WNW,298,3.1,4.0,35,0.00,,,0.00,VWS V13.01,2013-02-02 22:00:00,
2013-02-02 14:05:00,59.0,31.4,30.27,WSW,246,4.0,4.0,35,0.00,,,0.00,VWS V13.01,2013-02-02 22:05:00,
2013-02-02 14:10:00,58.8,31.2,30.27,NW,306,0.0,0.0,35,0.00,,,0.00,VWS V13.01,2013-02-02 22:10:00,
2013-02-02 14:15:00,58.6,31.1,30.27,WNW,302,3.6,6.3,35,0.00,,,0.00,VWS V13.01,2013-02-02 22:15:00,
2013-02-02 14:20:00,58.5,30.9,30.27,NW,313,5.8,5.8,35,0.00,,,0.00,VWS V13.01,2013-02-02 22:20:00,
2013-02-02 14:25:00,58.1,30.6,30.27,NW,313,5.8,10.1,35,0.00,,,0.00,VWS V13.01,2013-02-02 22:25:00,
2013-02-02 14:30:00,58.1,30.6,30.27,WNW,288,8.7,8.7,35,0.00,,,0.00,VWS V13.01,2013-02-02 22:30:00,
2013-02-02 14:35:00,57.9,30.5,30.27,West,277,6.3,7.6,35,0.00,,,0.00,VWS V13.01,2013-02-02 22:35:00,
2013-02-02 14:40:00,57.6,30.1,30.27,NW,305,9.2,9.2,35,0.00,,,0.00,VWS V13.01,2013-02-02 22:40:00,
2013-02-02 14:45:00,57.6,30.1,30.27,West,276,3.1,5.4,35,0.00,,,0.00,VWS V13.01,2013-02-02 22:45:00,
2013-02-02 14:50:00,57.6,30.1,30.27,WNW,303,6.3,12.3,35,0.00,,,0.00,VWS V13.01,2013-02-02 22:50:00,
2013-02-02 14:55:00,57.6,30.1,30.30,West,279,10.1,10.1,35,0.00,,,0.00,VWS V13.01,2013-02-02 22:55:00,
2013-02-02 15:00:00,58.1,30.6,30.30,WNW,296,8.7,8.7,35,0.00,,,0.00,VWS V13.01,2013-02-02 23:00:00,
2013-02-02 15:05:00,57.9,30.5,30.30,NW,304,4.0,8.1,35,0.00,,,0.00,VWS V13.01,2013-02-02 23:05:00,
2013-02-02 15:10:00,58.3,30.8,30.30,NW,311,9.6,9.6,35,0.00,,,0.00,VWS V13.01,2013-02-02 23:10:00,
2013-02-02 15:15:00,57.7,30.3,30.30,NW,305,8.3,8.3,35,0.00,,,0.00,VWS V13.01,2013-02-02 23:15:00,
2013-02-02 15:20:00,57.2,29.8,30.30,NW,311,4.0,5.4,35,0.00,,,0.00,VWS V13.01,2013-02-02 23:20:00,
2013-02-02 15:25:00,56.5,29.9,30.30,NW,316,0.0,5.8,36,0.00,,,0.00,VWS V13.01,2013-02-02 23:25:00,
2013-02-02 15:30:00,55.4,28.9,30.30,WNW,285,11.4,11.4,36,0.00,,,0.00,VWS V13.01,2013-02-02 23:30:00,
2013-02-02 15:35:00,54.5,28.8,30.30,WNW,299,2.7,5.8,37,0.00,,,0.00,VWS V13.01,2013-02-02 23:35:00,
2013-02-02 15:40:00,54.3,29.3,30.30,WNW,300,7.6,10.1,38,0.00,,,0.00,VWS V13.01,2013-02-02 23:40:00,
2013-02-02 15:45:00,53.8,29.4,30.30,NW,306,3.6,4.0,39,0.00,,,0.00,VWS V13.01,2013-02-02 23:45:00,
2013-02-02 15:50:00,53.6,29.9,30.30,WNW,303,3.1,5.8,40,0.00,,,0.00,VWS V13.01,2013-02-02 23:50:00,
2013-02-02 15:55:00,53.6,30.5,30.30,WNW,290,5.4,5.8,41,0.00,,,0.00,VWS V13.01,2013-02-02 23:55:00,
2013-02-02 16:00:00,53.2,30.2,30.30,WNW,287,5.8,8.7,41,0.00,,,0.00,VWS V13.01,2013-02-03 00:00:00,
2013-02-02 16:05:00,53.1,30.6,30.30,WNW,297,4.0,4.9,42,0.00,,,0.00,VWS V13.01,2013-02-03 00:05:00,
2013-02-02 16:10:00,53.1,30.6,30.30,West,277,7.6,7.6,42,0.00,,,0.00,VWS V13.01,2013-02-03 00:10:00,
2013-02-02 16:15:00,52.7,31.4,30.30,NW,308,11.0,11.0,44,0.00,,,0.00,VWS V13.01,2013-02-03 00:15:00,
2013-02-02 16:20:00,52.2,32.0,30.30,NW,316,4.9,8.3,46,0.00,,,0.00,VWS V13.01,2013-02-03 00:20:00,
2013-02-02 16:25:00,51.8,31.7,30.30,WNW,288,7.6,9.6,46,0.00,,,0.00,VWS V13.01,2013-02-03 00:25:00,
2013-02-02 16:30:00,51.6,31.5,30.30,NW,304,3.1,5.4,46,0.00,,,0.00,VWS V13.01,2013-02-03 00:30:00,
2013-02-02 16:35:00,51.6,31.5,30.30,NW,306,2.7,6.3,46,0.00,,,0.00,VWS V13.01,2013-02-03 00:35:00,
2013-02-02 16:40:00,51.6,31.5,30.30,WNW,303,4.0,4.0,46,0.00,,,0.00,VWS V13.01,2013-02-03 00:40:00,
2013-02-02 16:45:00,51.6,31.5,30.30,WNW,287,0.0,3.1,46,0.00,,,0.00,VWS V13.01,2013-02-03 00:45:00,
2013-02-02 16:50:00,51.6,31.0,30.30,NW,321,2.7,3.1,45,0.00,,,0.00,VWS V13.01,2013-02-03 00:50:00,
2013-02-02 16:55:00,51.4,30.8,30.30,WNW,293,2.7,2.7,45,0.00,,,0.00,VWS V13.01,2013-02-03 00:55:00,
2013-02-02 17:00:00,51.4,30.8,30.30,West,280,0.0,0.0,45,0.00,,,0.00,VWS V13.01,2013-02-03 01:00:00,
2013-02-02 17:05:00,51.3,31.2,30.30,NNW,331,5.8,8.1,46,0.00,,,0.00,VWS V13.01,2013-02-03 01:05:00,
2013-02-02 17:10:00,50.9,31.4,30.30,WNW,301,5.4,5.8,47,0.00,,,0.00,VWS V13.01,2013-02-03 01:10:00,
2013-02-02 17:15:00,50.7,31.2,30.30,NW,317,5.4,5.8,47,0.00,,,0.00,VWS V13.01,2013-02-03 01:15:00,
2013-02-02 17:20:00,50.5,31.6,30.30,NW,319,2.2,5.4,48,0.00,,,0.00,VWS V13.01,2013-02-03 01:20:00,
2013-02-02 17:25:00,50.5,31.6,30.30,NW,308,0.0,0.0,48,0.00,,,0.00,VWS V13.01,2013-02-03 01:25:00,
2013-02-02 17:30:00,50.5,31.6,30.30,NW,317,0.0,0.0,48,0.00,,,0.00,VWS V13.01,2013-02-03 01:30:00,
2013-02-02 17:35:00,50.4,31.4,30.30,NW,307,0.0,0.0,48,0.00,,,0.00,VWS V13.01,2013-02-03 01:35:00,
2013-02-02 17:40:00,50.4,31.9,30.30,NW,304,3.1,3.1,49,0.00,,,0.00,VWS V13.01,2013-02-03 01:40:00,
2013-02-02 17:45:00,50.2,31.8,30.30,NW,305,0.0,0.0,49,0.00,,,0.00,VWS V13.01,2013-02-03 01:45:00,
2013-02-02 17:50:00,50.2,32.3,30.30,WNW,290,0.0,2.7,50,0.00,,,0.00,VWS V13.01,2013-02-03 01:50:00,
2013-02-02 17:55:00,50.2,32.3,30.30,WSW,254,0.0,0.0,50,0.00,,,0.00,VWS V13.01,2013-02-03 01:55:00,
2013-02-02 18:00:00,50.2,32.3,30.30,WSW,253,0.0,0.0,50,0.00,,,0.00,VWS V13.01,2013-02-03 02:00:00,
2013-02-02 18:05:00,50.2,32.3,30.30,WSW,253,0.0,0.0,50,0.00,,,0.00,VWS V13.01,2013-02-03 02:05:00,
2013-02-02 18:10:00,50.0,32.1,30.30,WSW,253,0.0,0.0,50,0.00,,,0.00,VWS V13.01,2013-02-03 02:10:00,
2013-02-02 18:15:00,50.0,32.6,30.30,WSW,253,0.0,0.0,51,0.00,,,0.00,VWS V13.01,2013-02-03 02:15:00,
2013-02-02 18:20:00,50.0,32.6,30.30,WSW,253,0.0,0.0,51,0.00,,,0.00,VWS V13.01,2013-02-03 02:20:00,
2013-02-02 18:25:00,50.0,32.6,30.30,NW,307,0.0,0.0,51,0.00,,,0.00,VWS V13.01,2013-02-03 02:25:00,
2013-02-02 18:30:00,49.8,32.4,30.30,NW,307,0.0,0.0,51,0.00,,,0.00,VWS V13.01,2013-02-03 02:30:00,
2013-02-02 18:35:00,49.8,32.9,30.30,WNW,298,0.0,3.1,52,0.00,,,0.00,VWS V13.01,2013-02-03 02:35:00,
2013-02-02 18:40:00,49.6,32.8,30.30,WNW,298,0.0,0.0,52,0.00,,,0.00,VWS V13.01,2013-02-03 02:40:00,
2013-02-02 18:45:00,49.6,32.8,30.30,West,273,4.0,4.0,52,0.00,,,0.00,VWS V13.01,2013-02-03 02:45:00,
2013-02-02 18:50:00,49.6,32.8,30.30,WNW,285,0.0,2.2,52,0.00,,,0.00,VWS V13.01,2013-02-03 02:50:00,
2013-02-02 18:55:00,49.6,32.8,30.30,WSW,258,0.0,0.0,52,0.00,,,0.00,VWS V13.01,2013-02-03 02:55:00,
2013-02-02 19:00:00,49.5,32.6,30.30,West,263,0.0,0.0,52,0.00,,,0.00,VWS V13.01,2013-02-03 03:00:00,
2013-02-02 19:05:00,49.5,33.1,30.30,WSW,255,0.0,0.0,53,0.00,,,0.00,VWS V13.01,2013-02-03 03:05:00,
2013-02-02 19:10:00,49.5,33.1,30.30,WSW,252,0.0,0.0,53,0.00,,,0.00,VWS V13.01,2013-02-03 03:10:00,
2013-02-02 19:15:00,49.5,33.1,30.30,WSW,252,0.0,0.0,53,0.00,,,0.00,VWS V13.01,2013-02-03 03:15:00,
2013-02-02 19:20:00,49.3,32.9,30.30,WSW,252,0.0,0.0,53,0.00,,,0.00,VWS V13.01,2013-02-03 03:20:00,
2013-02-02 19:25:00,49.3,32.9,30.30,WSW,252,0.0,0.0,53,0.00,,,0.00,VWS V13.01,2013-02-03 03:25:00,
2013-02-02 19:30:00,49.3,32.9,30.30,WSW,252,0.0,0.0,53,0.00,,,0.00,VWS V13.01,2013-02-03 03:30:00,
2013-02-02 19:35:00,49.3,32.9,30.30,WSW,252,0.0,0.0,53,0.00,,,0.00,VWS V13.01,2013-02-03 03:35:00,
2013-02-02 19:40:00,49.3,32.9,30.30,WSW,252,0.0,0.0,53,0.00,,,0.00,VWS V13.01,2013-02-03 03:40:00,
2013-02-02 19:45:00,49.3,32.9,30.30,WSW,252,0.0,0.0,53,0.00,,,0.00,VWS V13.01,2013-02-03 03:45:00,
2013-02-02 19:50:00,49.1,32.7,30.30,WNW,302,0.0,0.0,53,0.00,,,0.00,VWS V13.01,2013-02-03 03:50:00,
2013-02-02 19:55:00,49.1,32.7,30.30,WNW,302,0.0,0.0,53,0.00,,,0.00,VWS V13.01,2013-02-03 03:55:00,
2013-02-02 20:00:00,49.1,32.7,30.30,WNW,302,0.0,0.0,53,0.00,,,0.00,VWS V13.01,2013-02-03 04:00:00,
2013-02-02 20:05:00,49.1,32.7,30.33,WNW,302,0.0,0.0,53,0.00,,,0.00,VWS V13.01,2013-02-03 04:05:00,
2013-02-02 20:10:00,49.1,32.7,30.33,WNW,302,0.0,0.0,53,0.00,,,0.00,VWS V13.01,2013-02-03 04:10:00,
2013-02-02 20:15:00,49.1,32.7,30.33,WNW,302,0.0,0.0,53,0.00,,,0.00,VWS V13.01,2013-02-03 04:15:00,
2013-02-02 20:20:00,49.1,32.7,30.33,WNW,302,0.0,0.0,53,0.00,,,0.00,VWS V13.01,2013-02-03 04:20:00,
2013-02-02 20:25:00,49.1,32.7,30.30,WNW,302,0.0,0.0,53,0.00,,,0.00,VWS V13.01,2013-02-03 04:25:00,
2013-02-02 20:30:00,48.9,32.6,30.30,WSW,237,0.0,0.0,53,0.00,,,0.00,VWS V13.01,2013-02-03 04:30:00,
2013-02-02 20:35:00,48.9,32.6,30.30,WSW,237,0.0,0.0,53,0.00,,,0.00,VWS V13.01,2013-02-03 04:35:00,
2013-02-02 20:40:00,48.7,32.4,30.30,WSW,237,0.0,0.0,53,0.00,,,0.00,VWS V13.01,2013-02-03 04:40:00,
2013-02-02 20:45:00,48.7,32.4,30.30,WSW,237,0.0,0.0,53,0.00,,,0.00,VWS V13.01,2013-02-03 04:45:00,
2013-02-02 20:50:00,48.7,32.4,30.30,WSW,237,0.0,0.0,53,0.00,,,0.00,VWS V13.01,2013-02-03 04:50:00,
2013-02-02 20:55:00,48.7,32.4,30.30,WSW,237,0.0,0.0,53,0.00,,,0.00,VWS V13.01,2013-02-03 04:55:00,
2013-02-02 21:00:00,48.7,32.4,30.30,WSW,237,0.0,0.0,53,0.00,,,0.00,VWS V13.01,2013-02-03 05:00:00,
2013-02-02 21:01:00,48.7,32.4,30.30,WSW,237,0.0,0.0,53,0.00,,,0.00,VWS V13.01,2013-02-03 05:01:00,
2013-02-02 21:03:00,48.7,32.4,30.30,WSW,237,0.0,0.0,53,0.00,,,0.00,VWS V13.01,2013-02-03 05:03:00,
2013-02-02 21:08:00,48.6,32.2,30.30,WSW,237,0.0,0.0,53,0.00,,,0.00,VWS V13.01,2013-02-03 05:08:00,
2013-02-02 21:13:00,48.6,32.2,30.30,WSW,237,0.0,0.0,53,0.00,,,0.00,VWS V13.01,2013-02-03 05:13:00,
2013-02-02 21:18:00,48.6,32.2,30.30,WSW,237,0.0,0.0,53,0.00,,,0.00,VWS V13.01,2013-02-03 05:18:00,
2013-02-02 21:23:00,48.6,32.2,30.30,WSW,237,0.0,0.0,53,0.00,,,0.00,VWS V13.01,2013-02-03 05:23:00,
2013-02-02 21:28:00,48.6,32.2,30.30,SW,230,0.0,0.0,53,0.00,,,0.00,VWS V13.01,2013-02-03 05:28:00,
2013-02-02 21:33:00,48.6,32.2,30.30,SW,230,0.0,0.0,53,0.00,,,0.00,VWS V13.01,2013-02-03 05:33:00,
2013-02-02 21:38:00,48.6,32.2,30.30,SW,230,0.0,0.0,53,0.00,,,0.00,VWS V13.01,2013-02-03 05:38:00,
2013-02-02 21:43:00,48.6,32.2,30.30,SW,230,0.0,0.0,53,0.00,,,0.00,VWS V13.01,2013-02-03 05:43:00,
2013-02-02 21:48:00,48.6,32.2,30.30,SW,230,0.0,0.0,53,0.00,,,0.00,VWS V13.01,2013-02-03 05:48:00,
2013-02-02 21:53:00,48.4,32.0,30.30,SW,230,0.0,0.0,53,0.00,,,0.00,VWS V13.01,2013-02-03 05:53:00,
2013-02-02 21:58:00,48.6,32.2,30.30,SW,230,0.0,0.0,53,0.00,,,0.00,VWS V13.01,2013-02-03 05:58:00,
2013-02-02 22:03:00,48.4,32.0,30.30,SW,230,0.0,0.0,53,0.00,,,0.00,VWS V13.01,2013-02-03 06:03:00,
2013-02-02 22:08:00,48.4,32.0,30.30,SW,230,0.0,0.0,53,0.00,,,0.00,VWS V13.01,2013-02-03 06:08:00,
2013-02-02 22:13:00,48.4,32.0,30.30,SW,230,0.0,0.0,53,0.00,,,0.00,VWS V13.01,2013-02-03 06:13:00,
2013-02-02 22:18:00,48.4,32.0,30.30,SW,230,0.0,0.0,53,0.00,,,0.00,VWS V13.01,2013-02-03 06:18:00,
2013-02-02 22:23:00,48.4,32.0,30.30,SW,230,0.0,0.0,53,0.00,,,0.00,VWS V13.01,2013-02-03 06:23:00,
2013-02-02 22:28:00,48.4,32.0,30.30,SW,230,0.0,0.0,53,0.00,,,0.00,VWS V13.01,2013-02-03 06:28:00,
2013-02-02 22:33:00,48.4,32.0,30.30,SW,230,0.0,0.0,53,0.00,,,0.00,VWS V13.01,2013-02-03 06:33:00,
2013-02-02 22:38:00,48.4,32.0,30.33,SW,230,0.0,0.0,53,0.00,,,0.00,VWS V13.01,2013-02-03 06:38:00,
2013-02-02 22:43:00,48.4,32.0,30.33,SW,230,0.0,0.0,53,0.00,,,0.00,VWS V13.01,2013-02-03 06:43:00,
2013-02-02 22:48:00,48.2,31.9,30.33,NNW,346,0.0,0.0,53,0.00,,,0.00,VWS V13.01,2013-02-03 06:48:00,
2013-02-02 22:53:00,48.2,31.9,30.33,NNW,346,0.0,0.0,53,0.00,,,0.00,VWS V13.01,2013-02-03 06:53:00,
2013-02-02 22:58:00,48.2,31.9,30.33,NNW,346,0.0,0.0,53,0.00,,,0.00,VWS V13.01,2013-02-03 06:58:00,
2013-02-02 23:03:00,48.2,31.9,30.33,NNW,346,0.0,2.7,53,0.00,,,0.00,VWS V13.01,2013-02-03 07:03:00,
2013-02-02 23:08:00,48.4,32.5,30.36,NNW,346,0.0,0.0,54,0.00,,,0.00,VWS V13.01,2013-02-03 07:08:00,
2013-02-02 23:13:00,48.4,32.0,30.36,NNW,346,0.0,0.0,53,0.00,,,0.00,VWS V13.01,2013-02-03 07:13:00,
2013-02-02 23:18:00,48.4,32.0,30.36,NNW,346,0.0,0.0,53,0.00,,,0.00,VWS V13.01,2013-02-03 07:18:00,
2013-02-02 23:23:00,48.4,32.0,30.36,NNW,346,0.0,0.0,53,0.00,,,0.00,VWS V13.01,2013-02-03 07:23:00,
2013-02-02 23:28:00,48.4,32.0,30.36,NNW,346,0.0,0.0,53,0.00,,,0.00,VWS V13.01,2013-02-03 07:28:00,
2013-02-02 23:33:00,48.4,32.0,30.36,NNW,346,0.0,0.0,53,0.00,,,0.00,VWS V13.01,2013-02-03 07:33:00,
2013-02-02 23:38:00,48.2,31.9,30.36,NNW,346,0.0,0.0,53,0.00,,,0.00,VWS V13.01,2013-02-03 07:38:00,
2013-02-02 23:43:00,48.2,32.3,30.36,NNW,346,0.0,0.0,54,0.00,,,0.00,VWS V13.01,2013-02-03 07:43:00,
2013-02-02 23:48:00,48.0,32.2,30.36,SW,225,0.0,0.0,54,0.00,,,0.00,VWS V13.01,2013-02-03 07:48:00,
2013-02-02 23:53:00,48.0,32.6,30.33,South,187,0.0,4.0,55,0.00,,,0.00,VWS V13.01,2013-02-03 07:53:00,
2013-02-02 23:58:00,47.8,32.9,30.33,SSE,167,0.0,0.0,56,0.00,,,0.00,VWS V13.01,2013-02-03 07:58:00,